createdAt,value
2023-03-30T00:03:55.396Z,8.02
2023-03-30T00:08:20.445Z,7.43
2023-03-30T00:12:47.271Z,7.57
2023-03-30T00:17:11.471Z,4.78
2023-03-30T00:21:35.716Z,9.60
2023-03-30T00:25:59.835Z,6.22
2023-03-30T00:30:25.118Z,4.82
2023-03-30T00:34:49.072Z,6.70
2023-03-30T00:39:13.539Z,8.32
2023-03-30T00:43:56.910Z,10.57
2023-03-30T00:48:25.399Z,9.00
2023-03-30T00:52:52.363Z,6.60
2023-03-30T00:57:16.659Z,8.80
2023-03-30T01:01:41.530Z,6.43
2023-03-30T01:06:12.148Z,7.87
2023-03-30T01:10:36.791Z,7.43
2023-03-30T01:15:01.228Z,10.55
2023-03-30T01:20:03.064Z,8.20
2023-03-30T01:25:09.234Z,8.55
2023-03-30T01:29:50.184Z,7.82
2023-03-30T01:34:45.936Z,7.63
2023-03-30T01:39:23.224Z,7.00
2023-03-30T01:43:53.881Z,8.60
2023-03-30T01:48:26.192Z,7.47
2023-03-30T01:52:56.014Z,9.27
2023-03-30T01:57:18.771Z,7.10
2023-03-30T02:01:41.585Z,5.75
2023-03-30T02:06:04.831Z,7.30
2023-03-30T02:10:27.140Z,6.57
2023-03-30T02:14:50.408Z,6.82
2023-03-30T02:19:08.925Z,7.07
2023-03-30T02:23:35.010Z,6.80
2023-03-30T02:27:54.380Z,6.35
2023-03-30T02:32:19.962Z,5.57
2023-03-30T02:37:02.826Z,7.27
2023-03-30T02:42:05.275Z,7.15
2023-03-30T02:46:50.524Z,5.60
2023-03-30T02:51:30.442Z,5.50
2023-03-30T02:56:22.879Z,6.82
2023-03-30T03:00:56.256Z,8.32
2023-03-30T03:05:28.838Z,7.53
2023-03-30T03:10:10.066Z,8.13
2023-03-30T03:14:34.155Z,9.90
2023-03-30T03:18:58.251Z,9.05
2023-03-30T03:23:22.479Z,7.37
2023-03-30T03:27:43.783Z,8.23
2023-03-30T03:32:22.585Z,7.18
2023-03-30T03:36:52.245Z,6.67
2023-03-30T03:41:16.666Z,8.13
2023-03-30T03:45:42.699Z,7.93
2023-03-30T03:50:09.978Z,6.60
2023-03-30T03:54:34.281Z,8.93
2023-03-30T03:58:58.351Z,7.85
2023-03-30T04:03:23.744Z,9.50
2023-03-30T04:07:47.807Z,10.47
2023-03-30T04:12:11.786Z,8.40
2023-03-30T04:16:58.209Z,7.55
2023-03-30T04:21:55.751Z,7.67
2023-03-30T04:26:34.012Z,9.60
2023-03-30T04:31:02.015Z,8.30
2023-03-30T04:35:45.048Z,10.88
2023-03-30T04:40:40.774Z,9.63
2023-03-30T04:45:16.640Z,9.15
2023-03-30T04:50:01.143Z,6.72
2023-03-30T04:54:43.336Z,8.07
2023-03-30T04:59:26.765Z,12.25
2023-03-30T05:04:02.502Z,11.70
2023-03-30T05:08:44.754Z,12.90
2023-03-30T05:13:41.948Z,8.70
2023-03-30T05:18:16.843Z,6.75
2023-03-30T05:23:03.850Z,5.55
2023-03-30T05:27:47.793Z,7.63
2023-03-30T05:32:31.869Z,12.00
2023-03-30T05:37:19.585Z,7.45
2023-03-30T05:42:19.255Z,11.70
2023-03-30T05:47:02.079Z,12.85
2023-03-30T05:51:57.955Z,10.98
2023-03-30T05:56:40.144Z,10.60
2023-03-30T06:01:23.114Z,10.18
2023-03-30T06:05:48.194Z,11.40
2023-03-30T06:10:13.225Z,7.63
2023-03-30T06:14:40.810Z,8.37
2023-03-30T06:19:40.294Z,9.52
2023-03-30T06:24:05.812Z,8.02
2023-03-30T06:28:32.751Z,9.43
2023-03-30T06:32:58.336Z,7.50
2023-03-30T06:37:31.903Z,9.15
2023-03-30T06:41:56.227Z,9.60
2023-03-30T06:46:59.233Z,8.48
2023-03-30T06:51:24.581Z,8.40
2023-03-30T06:55:53.274Z,7.68
2023-03-30T07:00:19.099Z,12.40
2023-03-30T07:05:07.458Z,7.22
2023-03-30T07:09:52.986Z,10.93
2023-03-30T07:14:17.412Z,8.80
2023-03-30T07:18:42.664Z,9.77
2023-03-30T07:23:07.816Z,9.38
2023-03-30T07:27:36.225Z,7.57
2023-03-30T07:32:00.375Z,10.27
2023-03-30T07:36:24.890Z,9.38
2023-03-30T07:40:49.975Z,9.85
2023-03-30T07:45:23.909Z,10.20
2023-03-30T07:49:48.270Z,7.60
2023-03-30T07:54:12.317Z,6.72
2023-03-30T07:59:05.512Z,7.17
2023-03-30T08:03:33.881Z,10.43
2023-03-30T08:18:20.503Z,8.55
2023-03-30T08:24:16.601Z,9.23
2023-03-30T08:29:09.130Z,9.13
2023-03-30T08:34:06.764Z,10.10
2023-03-30T08:38:35.681Z,7.28
2023-03-30T08:55:08.046Z,9.20
2023-03-30T08:59:42.991Z,7.90
2023-03-30T09:04:18.486Z,8.27
2023-03-30T09:08:42.980Z,10.75
2023-03-30T09:13:09.045Z,8.75
2023-03-30T09:17:38.069Z,10.65
2023-03-30T09:22:06.935Z,7.67
2023-03-30T09:26:42.464Z,13.23
2023-03-30T09:31:13.202Z,11.07
2023-03-30T09:35:42.260Z,9.00
2023-03-30T09:40:26.534Z,6.65
2023-03-30T09:44:53.956Z,8.10
2023-03-30T09:49:19.241Z,10.40
2023-03-30T09:53:46.071Z,8.20
2023-03-30T09:58:17.830Z,7.55
2023-03-30T10:02:42.338Z,10.60
2023-03-30T10:07:22.461Z,9.93
2023-03-30T10:11:49.743Z,11.52
2023-03-30T10:16:24.816Z,9.90
2023-03-30T10:20:52.081Z,8.90
2023-03-30T10:25:23.684Z,10.18
2023-03-30T10:29:50.813Z,7.03
2023-03-30T10:34:21.792Z,10.50
2023-03-30T10:38:46.304Z,9.57
2023-03-30T10:43:15.954Z,7.97
2023-03-30T10:47:50.212Z,7.28
2023-03-30T10:52:21.976Z,9.07
2023-03-30T10:56:50.004Z,8.45
2023-03-30T11:01:22.634Z,7.55
2023-03-30T11:05:50.470Z,10.50
2023-03-30T11:10:19.699Z,10.00
2023-03-30T11:14:50.317Z,9.57
2023-03-30T11:19:23.473Z,6.97
2023-03-30T11:23:54.273Z,6.75
2023-03-30T11:28:27.020Z,7.95
2023-03-30T11:32:58.261Z,6.80
2023-03-30T11:37:27.307Z,8.10
2023-03-30T11:41:57.444Z,8.80
2023-03-30T11:46:28.310Z,10.35
2023-03-30T11:51:08.687Z,8.73
2023-03-30T11:55:49.074Z,8.20
2023-03-30T12:00:27.498Z,10.60
2023-03-30T12:04:57.161Z,8.10
2023-03-30T12:09:26.790Z,7.45
2023-03-30T12:13:52.777Z,7.25
2023-03-30T12:18:28.986Z,7.93
2023-03-30T12:22:56.966Z,8.93
2023-03-30T12:27:22.112Z,10.20
2023-03-30T12:32:07.668Z,11.02
2023-03-30T12:36:38.214Z,7.90
2023-03-30T12:41:14.600Z,9.82
2023-03-30T12:45:49.918Z,5.70
2023-03-30T12:50:30.027Z,6.73
2023-03-30T12:55:19.125Z,7.45
2023-03-30T13:00:17.083Z,9.35
2023-03-30T13:04:40.789Z,7.50
2023-03-30T13:09:31.508Z,8.10
2023-03-30T13:13:57.925Z,6.80
2023-03-30T13:18:32.994Z,6.53
2023-03-30T13:23:02.826Z,7.47
2023-03-30T13:27:34.476Z,8.98
2023-03-30T13:32:09.028Z,6.30
2023-03-30T13:36:38.250Z,5.63
2023-03-30T13:41:12.052Z,7.63
2023-03-30T13:45:46.781Z,7.35
2023-03-30T13:50:22.914Z,7.25
2023-03-30T13:54:48.349Z,6.17
2023-03-30T13:59:16.826Z,4.28
2023-03-30T14:03:44.344Z,5.88
2023-03-30T14:08:11.429Z,6.30
2023-03-30T14:12:38.895Z,4.93
2023-03-30T14:17:05.511Z,2.80
2023-03-30T14:21:34.113Z,4.17
2023-03-30T14:26:00.973Z,3.40
2023-03-30T14:30:27.170Z,4.40
2023-03-30T14:34:53.023Z,3.90
2023-03-30T14:39:22.262Z,3.37
2023-03-30T14:43:53.527Z,4.78
2023-03-30T14:48:23.218Z,3.90
2023-03-30T14:52:48.863Z,3.47
2023-03-30T14:57:17.350Z,3.78
2023-03-30T15:01:44.180Z,4.68
2023-03-30T15:06:10.369Z,4.30
2023-03-30T15:10:38.511Z,3.75
2023-03-30T15:15:06.453Z,6.38
2023-03-30T15:19:32.596Z,5.20
2023-03-30T15:23:58.619Z,6.20
2023-03-30T15:28:22.927Z,5.07
2023-03-30T15:32:48.272Z,4.18
2023-03-30T15:37:23.153Z,4.03
2023-03-30T15:41:48.784Z,6.35
2023-03-30T15:46:17.600Z,6.68
2023-03-30T15:50:48.044Z,4.80
2023-03-30T15:55:20.215Z,4.82
2023-03-30T15:59:49.015Z,4.90
2023-03-30T16:04:16.494Z,7.72
2023-03-30T16:08:44.445Z,4.70
2023-03-30T16:13:12.409Z,4.40
2023-03-30T16:17:36.446Z,4.70
2023-03-30T16:22:00.367Z,5.67
2023-03-30T16:26:25.669Z,5.75
2023-03-30T16:30:51.254Z,3.90
2023-03-30T16:35:21.524Z,3.93
2023-03-30T16:39:49.068Z,5.15
2023-03-30T16:44:14.332Z,5.30
2023-03-30T16:48:38.254Z,5.70
2023-03-30T16:53:02.029Z,4.90
2023-03-30T16:57:25.975Z,4.10
2023-03-30T17:01:52.055Z,5.25
2023-03-30T17:06:17.078Z,5.80
2023-03-30T17:10:42.170Z,5.65
2023-03-30T17:15:06.906Z,5.25
2023-03-30T17:19:32.145Z,5.07
2023-03-30T17:23:56.043Z,5.30
2023-03-30T17:28:22.975Z,3.60
2023-03-30T17:32:46.890Z,4.47
2023-03-30T17:37:12.597Z,5.87
2023-03-30T17:41:39.412Z,5.93
2023-03-30T17:46:05.967Z,7.25
2023-03-30T17:50:33.785Z,6.30
2023-03-30T17:54:59.004Z,6.22
2023-03-30T17:59:23.156Z,5.32
2023-03-30T18:03:49.695Z,7.20
2023-03-30T18:08:17.788Z,5.70
2023-03-30T18:12:43.745Z,5.60
2023-03-30T18:17:07.635Z,4.97
2023-03-30T18:21:34.805Z,5.97
2023-03-30T18:26:00.493Z,6.00
2023-03-30T18:30:28.931Z,6.38
2023-03-30T18:34:55.059Z,5.80
2023-03-30T18:39:22.837Z,9.85
2023-03-30T18:43:46.662Z,7.00
2023-03-30T18:48:16.674Z,8.20
2023-03-30T18:52:40.797Z,5.82
2023-03-30T18:57:04.703Z,5.93
2023-03-30T19:01:30.694Z,4.85
2023-03-30T19:05:56.054Z,5.80
2023-03-30T19:10:26.687Z,5.70
2023-03-30T19:14:50.690Z,6.63
2023-03-30T19:19:14.929Z,6.17
2023-03-30T19:23:42.136Z,6.43
2023-03-30T19:28:07.701Z,8.20
2023-03-30T19:32:34.862Z,6.70
2023-03-30T19:37:02.440Z,8.75
2023-03-30T19:41:27.736Z,6.00
2023-03-30T19:45:52.324Z,7.60
2023-03-30T19:50:20.641Z,6.40
2023-03-30T19:54:44.572Z,6.88
2023-03-30T19:59:11.025Z,5.68
2023-03-30T20:03:35.810Z,5.70
2023-03-30T20:08:07.955Z,5.15
2023-03-30T20:12:31.981Z,7.20
2023-03-30T20:16:57.105Z,5.43
2023-03-30T20:21:23.769Z,6.95
2023-03-30T20:25:54.243Z,5.40
2023-03-30T20:30:20.984Z,5.75
2023-03-30T20:34:49.368Z,5.03
2023-03-30T20:39:08.183Z,7.68
2023-03-30T20:43:38.462Z,7.47
2023-03-30T20:48:06.394Z,4.43
2023-03-30T20:52:27.724Z,5.68
2023-03-30T20:56:47.267Z,6.60
2023-03-30T21:01:14.738Z,5.40
2023-03-30T21:05:32.481Z,5.00
2023-03-30T21:09:52.131Z,7.28
2023-03-30T21:14:13.575Z,6.05
2023-03-30T21:18:33.144Z,5.30
2023-03-30T21:22:52.651Z,6.00
2023-03-30T21:27:14.133Z,7.03
2023-03-30T21:31:37.134Z,8.13
2023-03-30T21:35:56.698Z,5.50
2023-03-30T21:40:17.963Z,5.13
2023-03-30T21:44:39.093Z,5.73
2023-03-30T21:48:57.647Z,5.40
2023-03-30T21:53:16.002Z,5.05
2023-03-30T21:57:37.008Z,5.75
2023-03-30T22:01:57.277Z,5.70
2023-03-30T22:06:17.309Z,5.30
2023-03-30T22:10:39.335Z,7.35
2023-03-30T22:14:58.429Z,4.93
2023-03-30T22:19:26.552Z,6.20
2023-03-30T22:23:49.759Z,5.20
2023-03-30T22:28:12.649Z,5.77
2023-03-30T22:32:36.264Z,5.75
2023-03-30T22:36:58.523Z,4.70
2023-03-30T22:41:25.536Z,5.60
2023-03-30T22:45:46.957Z,6.37
2023-03-30T22:50:09.552Z,7.32
2023-03-30T22:54:31.309Z,5.88
2023-03-30T22:58:54.369Z,6.70
2023-03-30T23:03:12.341Z,6.93
2023-03-30T23:07:31.265Z,5.97
2023-03-30T23:11:53.710Z,5.30
2023-03-30T23:16:12.257Z,5.95
2023-03-30T23:20:30.349Z,6.70
2023-03-30T23:24:48.981Z,5.03
2023-03-30T23:29:08.392Z,5.93
2023-03-30T23:33:29.113Z,5.53
2023-03-30T23:37:50.058Z,5.35
2023-03-30T23:42:09.874Z,3.97
2023-03-30T23:46:29.778Z,5.40
2023-03-30T23:50:49.393Z,4.45
2023-03-30T23:55:07.255Z,7.73
2023-03-30T23:59:25.861Z,7.80
